sensor_id;sensor_type;location;lat;lon;timestamp;temperature;humidity
10873;DHT22;34586;53.616;10.032;2023-04-06T00:02:11;2.10;99.90
10873;DHT22;34586;53.616;10.032;2023-04-06T00:04:37;2.10;99.90
10873;DHT22;34586;53.616;10.032;2023-04-06T00:07:03;2.10;99.90
10873;DHT22;34586;53.616;10.032;2023-04-06T00:09:28;2.10;99.90
10873;DHT22;34586;53.616;10.032;2023-04-06T00:11:54;2.00;99.90
10873;DHT22;34586;53.616;10.032;2023-04-06T00:14:21;2.10;99.90
10873;DHT22;34586;53.616;10.032;2023-04-06T00:16:47;2.10;99.90
10873;DHT22;34586;53.616;10.032;2023-04-06T00:19:13;2.10;99.90
10873;DHT22;34586;53.616;10.032;2023-04-06T00:21:38;2.20;99.90
10873;DHT22;34586;53.616;10.032;2023-04-06T00:24:04;2.20;99.90
10873;DHT22;34586;53.616;10.032;2023-04-06T00:26:30;2.20;99.90
10873;DHT22;34586;53.616;10.032;2023-04-06T00:28:56;2.20;99.90
10873;DHT22;34586;53.616;10.032;2023-04-06T00:31:23;2.20;99.90
10873;DHT22;34586;53.616;10.032;2023-04-06T00:33:49;2.20;99.90
10873;DHT22;34586;53.616;10.032;2023-04-06T00:36:15;2.20;99.90
10873;DHT22;34586;53.616;10.032;2023-04-06T00:38:40;2.20;99.90
10873;DHT22;34586;53.616;10.032;2023-04-06T00:41:06;2.20;99.90
10873;DHT22;34586;53.616;10.032;2023-04-06T00:43:32;2.20;99.90
10873;DHT22;34586;53.616;10.032;2023-04-06T00:45:58;2.10;99.90
10873;DHT22;34586;53.616;10.032;2023-04-06T00:48:23;2.10;99.90
10873;DHT22;34586;53.616;10.032;2023-04-06T00:50:50;2.00;99.90
10873;DHT22;34586;53.616;10.032;2023-04-06T00:53:16;2.00;99.90
10873;DHT22;34586;53.616;10.032;2023-04-06T00:55:42;1.90;99.90
10873;DHT22;34586;53.616;10.032;2023-04-06T00:58:08;1.80;99.90
10873;DHT22;34586;53.616;10.032;2023-04-06T01:00:34;1.80;99.90
10873;DHT22;34586;53.616;10.032;2023-04-06T01:02:59;1.80;99.90
10873;DHT22;34586;53.616;10.032;2023-04-06T01:05:26;1.70;99.90
10873;DHT22;34586;53.616;10.032;2023-04-06T01:07:52;1.60;99.90
10873;DHT22;34586;53.616;10.032;2023-04-06T01:10:28;1.60;99.90
10873;DHT22;34586;53.616;10.032;2023-04-06T01:12:54;1.50;99.90
10873;DHT22;34586;53.616;10.032;2023-04-06T01:15:20;1.50;99.90
10873;DHT22;34586;53.616;10.032;2023-04-06T01:17:46;1.50;99.90
10873;DHT22;34586;53.616;10.032;2023-04-06T01:20:12;1.50;99.90
10873;DHT22;34586;53.616;10.032;2023-04-06T01:22:38;1.50;99.90
10873;DHT22;34586;53.616;10.032;2023-04-06T01:25:04;1.50;99.90
10873;DHT22;34586;53.616;10.032;2023-04-06T01:27:30;1.60;99.90
10873;DHT22;34586;53.616;10.032;2023-04-06T01:29:56;1.60;99.90
10873;DHT22;34586;53.616;10.032;2023-04-06T01:32:22;1.60;99.90
10873;DHT22;34586;53.616;10.032;2023-04-06T01:34:47;1.70;99.90
10873;DHT22;34586;53.616;10.032;2023-04-06T01:37:13;1.70;99.90
10873;DHT22;34586;53.616;10.032;2023-04-06T01:39:39;1.80;99.90
10873;DHT22;34586;53.616;10.032;2023-04-06T01:42:05;1.80;99.90
10873;DHT22;34586;53.616;10.032;2023-04-06T01:44:30;1.80;99.90
10873;DHT22;34586;53.616;10.032;2023-04-06T01:46:56;1.80;99.90
10873;DHT22;34586;53.616;10.032;2023-04-06T01:49:22;1.80;99.90
10873;DHT22;34586;53.616;10.032;2023-04-06T01:51:49;1.80;99.90
10873;DHT22;34586;53.616;10.032;2023-04-06T01:54:15;1.80;99.90
10873;DHT22;34586;53.616;10.032;2023-04-06T01:56:41;1.90;99.90
10873;DHT22;34586;53.616;10.032;2023-04-06T01:59:07;1.90;99.90
10873;DHT22;34586;53.616;10.032;2023-04-06T02:01:33;1.90;99.90
10873;DHT22;34586;53.616;10.032;2023-04-06T02:04:00;1.90;99.90
10873;DHT22;34586;53.616;10.032;2023-04-06T02:06:25;1.90;99.90
10873;DHT22;34586;53.616;10.032;2023-04-06T02:08:52;1.90;99.90
10873;DHT22;34586;53.616;10.032;2023-04-06T02:11:19;1.90;99.90
10873;DHT22;34586;53.616;10.032;2023-04-06T02:13:45;1.80;99.90
10873;DHT22;34586;53.616;10.032;2023-04-06T02:16:11;1.80;99.90
10873;DHT22;34586;53.616;10.032;2023-04-06T02:18:36;1.80;99.90
10873;DHT22;34586;53.616;10.032;2023-04-06T02:21:02;1.80;99.90
10873;DHT22;34586;53.616;10.032;2023-04-06T02:23:28;1.80;99.90
10873;DHT22;34586;53.616;10.032;2023-04-06T02:25:53;1.80;99.90
10873;DHT22;34586;53.616;10.032;2023-04-06T02:28:19;1.70;99.90
10873;DHT22;34586;53.616;10.032;2023-04-06T02:30:45;1.70;99.90
10873;DHT22;34586;53.616;10.032;2023-04-06T02:33:11;1.70;99.90
10873;DHT22;34586;53.616;10.032;2023-04-06T02:35:37;1.70;99.90
10873;DHT22;34586;53.616;10.032;2023-04-06T02:38:03;1.70;99.90
10873;DHT22;34586;53.616;10.032;2023-04-06T02:40:29;1.70;99.90
10873;DHT22;34586;53.616;10.032;2023-04-06T02:42:55;1.70;99.90
10873;DHT22;34586;53.616;10.032;2023-04-06T02:45:22;1.60;99.90
10873;DHT22;34586;53.616;10.032;2023-04-06T02:47:47;1.60;99.90
10873;DHT22;34586;53.616;10.032;2023-04-06T02:50:13;1.60;99.90
10873;DHT22;34586;53.616;10.032;2023-04-06T02:52:39;1.60;99.90
10873;DHT22;34586;53.616;10.032;2023-04-06T02:55:05;1.60;99.90
10873;DHT22;34586;53.616;10.032;2023-04-06T02:57:32;1.60;99.90
10873;DHT22;34586;53.616;10.032;2023-04-06T02:59:58;1.60;99.90
10873;DHT22;34586;53.616;10.032;2023-04-06T03:02:24;1.60;99.90
10873;DHT22;34586;53.616;10.032;2023-04-06T03:04:49;1.60;99.90
10873;DHT22;34586;53.616;10.032;2023-04-06T03:07:15;1.60;99.90
10873;DHT22;34586;53.616;10.032;2023-04-06T03:09:41;1.60;99.90
10873;DHT22;34586;53.616;10.032;2023-04-06T03:12:06;1.60;99.90
10873;DHT22;34586;53.616;10.032;2023-04-06T03:14:32;1.60;99.90
10873;DHT22;34586;53.616;10.032;2023-04-06T03:16:58;1.60;99.90
10873;DHT22;34586;53.616;10.032;2023-04-06T03:19:23;1.50;99.90
10873;DHT22;34586;53.616;10.032;2023-04-06T03:21:49;1.50;99.90
10873;DHT22;34586;53.616;10.032;2023-04-06T03:24:16;1.50;99.90
10873;DHT22;34586;53.616;10.032;2023-04-06T03:26:41;1.50;99.90
10873;DHT22;34586;53.616;10.032;2023-04-06T03:29:07;1.50;99.90
10873;DHT22;34586;53.616;10.032;2023-04-06T03:31:33;1.40;99.90
10873;DHT22;34586;53.616;10.032;2023-04-06T03:33:59;1.50;99.90
10873;DHT22;34586;53.616;10.032;2023-04-06T03:36:24;1.40;99.90
10873;DHT22;34586;53.616;10.032;2023-04-06T03:38:51;1.40;99.90
10873;DHT22;34586;53.616;10.032;2023-04-06T03:41:19;1.40;99.90
10873;DHT22;34586;53.616;10.032;2023-04-06T03:43:45;1.40;99.90
10873;DHT22;34586;53.616;10.032;2023-04-06T03:46:11;1.40;99.90
10873;DHT22;34586;53.616;10.032;2023-04-06T03:48:38;1.40;99.90
10873;DHT22;34586;53.616;10.032;2023-04-06T03:51:04;1.40;99.90
10873;DHT22;34586;53.616;10.032;2023-04-06T03:53:29;1.40;99.90
10873;DHT22;34586;53.616;10.032;2023-04-06T03:55:56;1.40;99.90
10873;DHT22;34586;53.616;10.032;2023-04-06T03:58:25;1.40;99.90
10873;DHT22;34586;53.616;10.032;2023-04-06T04:00:51;1.40;99.90
10873;DHT22;34586;53.616;10.032;2023-04-06T04:03:16;1.40;99.90
10873;DHT22;34586;53.616;10.032;2023-04-06T04:05:43;1.40;99.90
10873;DHT22;34586;53.616;10.032;2023-04-06T04:08:08;1.40;99.90
10873;DHT22;34586;53.616;10.032;2023-04-06T04:10:34;1.40;99.90
10873;DHT22;34586;53.616;10.032;2023-04-06T04:13:00;1.40;99.90
10873;DHT22;34586;53.616;10.032;2023-04-06T04:15:25;1.40;99.90
10873;DHT22;34586;53.616;10.032;2023-04-06T04:17:51;1.40;99.90
10873;DHT22;34586;53.616;10.032;2023-04-06T04:20:17;1.40;99.90
10873;DHT22;34586;53.616;10.032;2023-04-06T04:22:43;1.40;99.90
10873;DHT22;34586;53.616;10.032;2023-04-06T04:25:09;1.40;99.90
10873;DHT22;34586;53.616;10.032;2023-04-06T04:27:35;1.40;99.90
10873;DHT22;34586;53.616;10.032;2023-04-06T04:30:02;1.40;99.90
10873;DHT22;34586;53.616;10.032;2023-04-06T04:32:28;1.40;99.90
10873;DHT22;34586;53.616;10.032;2023-04-06T04:34:54;1.30;99.90
10873;DHT22;34586;53.616;10.032;2023-04-06T04:37:19;1.30;99.90
10873;DHT22;34586;53.616;10.032;2023-04-06T04:39:45;1.20;99.90
10873;DHT22;34586;53.616;10.032;2023-04-06T04:42:11;1.20;99.90
10873;DHT22;34586;53.616;10.032;2023-04-06T04:44:38;1.20;99.90
10873;DHT22;34586;53.616;10.032;2023-04-06T04:47:04;1.20;99.90
10873;DHT22;34586;53.616;10.032;2023-04-06T04:49:30;1.20;99.90
10873;DHT22;34586;53.616;10.032;2023-04-06T04:51:56;1.20;99.90
10873;DHT22;34586;53.616;10.032;2023-04-06T04:54:21;1.30;99.90
10873;DHT22;34586;53.616;10.032;2023-04-06T04:56:47;1.30;99.90
10873;DHT22;34586;53.616;10.032;2023-04-06T04:59:13;1.30;99.90
10873;DHT22;34586;53.616;10.032;2023-04-06T05:01:39;1.30;99.90
10873;DHT22;34586;53.616;10.032;2023-04-06T05:04:05;1.30;99.90
10873;DHT22;34586;53.616;10.032;2023-04-06T05:06:30;1.40;99.90
10873;DHT22;34586;53.616;10.032;2023-04-06T05:08:57;1.40;99.90
10873;DHT22;34586;53.616;10.032;2023-04-06T05:11:23;1.50;99.90
10873;DHT22;34586;53.616;10.032;2023-04-06T05:13:48;1.50;99.90
10873;DHT22;34586;53.616;10.032;2023-04-06T05:16:14;1.40;99.90
10873;DHT22;34586;53.616;10.032;2023-04-06T05:18:41;1.40;99.90
10873;DHT22;34586;53.616;10.032;2023-04-06T05:21:07;1.40;99.90
10873;DHT22;34586;53.616;10.032;2023-04-06T05:23:34;1.50;99.90
10873;DHT22;34586;53.616;10.032;2023-04-06T05:25:59;1.50;99.90
10873;DHT22;34586;53.616;10.032;2023-04-06T05:28:25;1.50;99.90
10873;DHT22;34586;53.616;10.032;2023-04-06T05:30:51;1.60;99.90
10873;DHT22;34586;53.616;10.032;2023-04-06T05:33:17;1.60;99.90
10873;DHT22;34586;53.616;10.032;2023-04-06T05:35:42;1.60;99.90
10873;DHT22;34586;53.616;10.032;2023-04-06T05:38:10;1.70;99.90
10873;DHT22;34586;53.616;10.032;2023-04-06T05:40:37;1.70;99.90
10873;DHT22;34586;53.616;10.032;2023-04-06T05:43:05;1.80;99.90
10873;DHT22;34586;53.616;10.032;2023-04-06T05:45:30;1.80;99.90
10873;DHT22;34586;53.616;10.032;2023-04-06T05:47:56;1.80;99.90
10873;DHT22;34586;53.616;10.032;2023-04-06T05:50:22;1.80;99.90
10873;DHT22;34586;53.616;10.032;2023-04-06T05:52:48;1.90;99.90
10873;DHT22;34586;53.616;10.032;2023-04-06T05:55:13;1.90;99.90
10873;DHT22;34586;53.616;10.032;2023-04-06T05:57:39;1.90;99.90
10873;DHT22;34586;53.616;10.032;2023-04-06T06:00:06;2.00;99.90
10873;DHT22;34586;53.616;10.032;2023-04-06T06:02:34;2.00;99.90
10873;DHT22;34586;53.616;10.032;2023-04-06T06:05:00;2.10;99.90
10873;DHT22;34586;53.616;10.032;2023-04-06T06:07:25;2.30;99.90
10873;DHT22;34586;53.616;10.032;2023-04-06T06:09:51;2.40;99.90
10873;DHT22;34586;53.616;10.032;2023-04-06T06:12:18;2.60;99.90
10873;DHT22;34586;53.616;10.032;2023-04-06T06:14:44;2.80;99.90
10873;DHT22;34586;53.616;10.032;2023-04-06T06:17:09;2.90;99.90
10873;DHT22;34586;53.616;10.032;2023-04-06T06:19:35;3.00;99.90
10873;DHT22;34586;53.616;10.032;2023-04-06T06:22:02;3.00;99.90
10873;DHT22;34586;53.616;10.032;2023-04-06T06:24:28;3.10;99.90
10873;DHT22;34586;53.616;10.032;2023-04-06T06:26:54;3.10;99.90
10873;DHT22;34586;53.616;10.032;2023-04-06T06:29:19;3.20;99.90
10873;DHT22;34586;53.616;10.032;2023-04-06T06:31:45;3.20;99.90
10873;DHT22;34586;53.616;10.032;2023-04-06T06:34:11;3.40;99.90
10873;DHT22;34586;53.616;10.032;2023-04-06T06:36:38;3.40;99.90
10873;DHT22;34586;53.616;10.032;2023-04-06T06:39:05;3.40;99.90
10873;DHT22;34586;53.616;10.032;2023-04-06T06:41:31;3.50;99.90
10873;DHT22;34586;53.616;10.032;2023-04-06T06:43:56;3.60;99.90
10873;DHT22;34586;53.616;10.032;2023-04-06T06:46:22;3.70;99.90
10873;DHT22;34586;53.616;10.032;2023-04-06T06:48:48;3.70;99.90
10873;DHT22;34586;53.616;10.032;2023-04-06T06:51:13;3.80;99.90
10873;DHT22;34586;53.616;10.032;2023-04-06T06:53:39;3.90;99.90
10873;DHT22;34586;53.616;10.032;2023-04-06T06:56:07;4.00;99.90
10873;DHT22;34586;53.616;10.032;2023-04-06T06:58:33;4.00;99.90
10873;DHT22;34586;53.616;10.032;2023-04-06T07:01:00;4.10;99.90
10873;DHT22;34586;53.616;10.032;2023-04-06T07:03:26;4.20;99.90
10873;DHT22;34586;53.616;10.032;2023-04-06T07:05:53;4.30;99.90
10873;DHT22;34586;53.616;10.032;2023-04-06T07:08:20;4.30;99.90
10873;DHT22;34586;53.616;10.032;2023-04-06T07:10:47;4.40;99.90
10873;DHT22;34586;53.616;10.032;2023-04-06T07:13:14;4.50;99.90
10873;DHT22;34586;53.616;10.032;2023-04-06T07:15:47;4.60;99.90
10873;DHT22;34586;53.616;10.032;2023-04-06T07:18:14;4.70;99.90
10873;DHT22;34586;53.616;10.032;2023-04-06T07:20:40;4.80;99.90
10873;DHT22;34586;53.616;10.032;2023-04-06T07:23:06;4.90;99.90
10873;DHT22;34586;53.616;10.032;2023-04-06T07:25:32;4.90;99.90
10873;DHT22;34586;53.616;10.032;2023-04-06T07:27:59;5.00;99.90
10873;DHT22;34586;53.616;10.032;2023-04-06T07:30:25;5.10;99.90
10873;DHT22;34586;53.616;10.032;2023-04-06T07:32:53;5.20;99.90
10873;DHT22;34586;53.616;10.032;2023-04-06T07:35:21;5.30;99.90
10873;DHT22;34586;53.616;10.032;2023-04-06T07:37:46;5.30;99.90
10873;DHT22;34586;53.616;10.032;2023-04-06T07:40:12;5.40;99.90
10873;DHT22;34586;53.616;10.032;2023-04-06T07:42:38;5.60;99.90
10873;DHT22;34586;53.616;10.032;2023-04-06T07:45:03;5.70;99.90
10873;DHT22;34586;53.616;10.032;2023-04-06T07:47:29;5.70;99.90
10873;DHT22;34586;53.616;10.032;2023-04-06T07:49:56;5.80;1.00
10873;DHT22;34586;53.616;10.032;2023-04-06T07:52:22;5.90;99.90
10873;DHT22;34586;53.616;10.032;2023-04-06T07:54:47;6.00;99.90
10873;DHT22;34586;53.616;10.032;2023-04-06T07:57:17;6.10;99.90
10873;DHT22;34586;53.616;10.032;2023-04-06T07:59:45;6.20;99.90
10873;DHT22;34586;53.616;10.032;2023-04-06T08:02:10;6.30;99.90
10873;DHT22;34586;53.616;10.032;2023-04-06T08:04:36;6.40;99.90
10873;DHT22;34586;53.616;10.032;2023-04-06T08:07:02;6.50;99.90
10873;DHT22;34586;53.616;10.032;2023-04-06T08:09:28;6.50;99.90
10873;DHT22;34586;53.616;10.032;2023-04-06T08:11:54;6.70;99.90
10873;DHT22;34586;53.616;10.032;2023-04-06T08:14:20;6.80;99.90
10873;DHT22;34586;53.616;10.032;2023-04-06T08:16:46;6.90;99.90
10873;DHT22;34586;53.616;10.032;2023-04-06T08:19:12;7.00;99.90
10873;DHT22;34586;53.616;10.032;2023-04-06T08:21:38;7.10;99.90
10873;DHT22;34586;53.616;10.032;2023-04-06T08:24:05;7.20;99.90
10873;DHT22;34586;53.616;10.032;2023-04-06T08:26:32;7.30;99.90
10873;DHT22;34586;53.616;10.032;2023-04-06T08:28:57;7.40;99.90
10873;DHT22;34586;53.616;10.032;2023-04-06T08:31:23;7.40;99.90
10873;DHT22;34586;53.616;10.032;2023-04-06T08:33:49;7.40;99.90
10873;DHT22;34586;53.616;10.032;2023-04-06T08:36:15;7.50;1.00
10873;DHT22;34586;53.616;10.032;2023-04-06T08:38:42;7.60;1.00
10873;DHT22;34586;53.616;10.032;2023-04-06T08:41:10;7.70;1.00
10873;DHT22;34586;53.616;10.032;2023-04-06T08:43:57;7.70;99.90
10873;DHT22;34586;53.616;10.032;2023-04-06T08:46:24;7.80;99.90
10873;DHT22;34586;53.616;10.032;2023-04-06T08:48:59;7.80;99.90
10873;DHT22;34586;53.616;10.032;2023-04-06T08:51:27;7.90;99.90
10873;DHT22;34586;53.616;10.032;2023-04-06T08:54:00;8.00;99.90
10873;DHT22;34586;53.616;10.032;2023-04-06T08:56:28;8.00;99.90
10873;DHT22;34586;53.616;10.032;2023-04-06T08:58:54;8.10;99.90
10873;DHT22;34586;53.616;10.032;2023-04-06T09:01:25;8.10;99.90
10873;DHT22;34586;53.616;10.032;2023-04-06T09:03:51;8.20;99.90
10873;DHT22;34586;53.616;10.032;2023-04-06T09:06:20;8.20;99.90
10873;DHT22;34586;53.616;10.032;2023-04-06T09:08:46;8.30;1.00
10873;DHT22;34586;53.616;10.032;2023-04-06T09:11:13;8.40;99.90
10873;DHT22;34586;53.616;10.032;2023-04-06T09:13:52;8.50;99.90
10873;DHT22;34586;53.616;10.032;2023-04-06T09:16:18;8.50;99.90
10873;DHT22;34586;53.616;10.032;2023-04-06T09:18:45;8.50;99.90
10873;DHT22;34586;53.616;10.032;2023-04-06T09:21:12;8.60;99.90
10873;DHT22;34586;53.616;10.032;2023-04-06T09:23:39;8.60;99.90
10873;DHT22;34586;53.616;10.032;2023-04-06T09:26:09;8.70;1.00
10873;DHT22;34586;53.616;10.032;2023-04-06T09:31:15;8.70;1.00
10873;DHT22;34586;53.616;10.032;2023-04-06T09:33:43;8.80;1.00
10873;DHT22;34586;53.616;10.032;2023-04-06T09:36:11;8.90;99.90
10873;DHT22;34586;53.616;10.032;2023-04-06T09:38:55;9.00;99.90
10873;DHT22;34586;53.616;10.032;2023-04-06T09:41:28;9.10;99.90
10873;DHT22;34586;53.616;10.032;2023-04-06T09:44:10;9.10;99.90
10873;DHT22;34586;53.616;10.032;2023-04-06T09:46:44;9.20;1.00
10873;DHT22;34586;53.616;10.032;2023-04-06T09:49:13;9.20;99.90
10873;DHT22;34586;53.616;10.032;2023-04-06T09:51:46;9.20;99.90
10873;DHT22;34586;53.616;10.032;2023-04-06T09:54:18;9.30;99.90
10873;DHT22;34586;53.616;10.032;2023-04-06T10:02:39;9.40;99.90
10873;DHT22;34586;53.616;10.032;2023-04-06T10:05:33;9.50;99.90
10873;DHT22;34586;53.616;10.032;2023-04-06T10:08:00;9.50;99.90
10873;DHT22;34586;53.616;10.032;2023-04-06T10:10:29;9.50;99.90
10873;DHT22;34586;53.616;10.032;2023-04-06T10:12:56;9.50;99.90
10873;DHT22;34586;53.616;10.032;2023-04-06T10:15:22;9.70;99.90
10873;DHT22;34586;53.616;10.032;2023-04-06T10:17:48;9.80;99.90
10873;DHT22;34586;53.616;10.032;2023-04-06T10:20:31;9.80;1.00
10873;DHT22;34586;53.616;10.032;2023-04-06T10:23:06;9.90;99.90
10873;DHT22;34586;53.616;10.032;2023-04-06T10:25:34;10.00;99.90
10873;DHT22;34586;53.616;10.032;2023-04-06T10:28:09;10.00;99.90
10873;DHT22;34586;53.616;10.032;2023-04-06T10:30:42;10.00;99.90
10873;DHT22;34586;53.616;10.032;2023-04-06T10:33:18;10.00;99.90
10873;DHT22;34586;53.616;10.032;2023-04-06T10:35:44;10.10;99.90
10873;DHT22;34586;53.616;10.032;2023-04-06T10:38:10;10.10;99.90
10873;DHT22;34586;53.616;10.032;2023-04-06T10:40:39;10.20;59.50
10873;DHT22;34586;53.616;10.032;2023-04-06T10:43:19;10.30;54.40
10873;DHT22;34586;53.616;10.032;2023-04-06T10:45:44;10.30;93.20
10873;DHT22;34586;53.616;10.032;2023-04-06T10:48:18;10.30;94.20
10873;DHT22;34586;53.616;10.032;2023-04-06T10:50:49;10.40;99.90
10873;DHT22;34586;53.616;10.032;2023-04-06T10:53:25;10.50;76.70
10873;DHT22;34586;53.616;10.032;2023-04-06T10:55:52;10.50;78.10
10873;DHT22;34586;53.616;10.032;2023-04-06T10:58:19;10.60;70.30
10873;DHT22;34586;53.616;10.032;2023-04-06T11:00:47;10.70;92.50
10873;DHT22;34586;53.616;10.032;2023-04-06T11:03:15;10.80;85.80
10873;DHT22;34586;53.616;10.032;2023-04-06T11:05:48;10.90;96.20
10873;DHT22;34586;53.616;10.032;2023-04-06T11:08:31;11.00;5.40
10873;DHT22;34586;53.616;10.032;2023-04-06T11:11:09;11.00;70.40
10873;DHT22;34586;53.616;10.032;2023-04-06T11:13:44;11.00;31.90
10873;DHT22;34586;53.616;10.032;2023-04-06T11:16:16;11.10;59.40
10873;DHT22;34586;53.616;10.032;2023-04-06T11:21:17;11.40;24.60
10873;DHT22;34586;53.616;10.032;2023-04-06T11:23:43;11.40;66.70
10873;DHT22;34586;53.616;10.032;2023-04-06T11:26:13;11.30;38.00
10873;DHT22;34586;53.616;10.032;2023-04-06T11:28:42;11.40;20.80
10873;DHT22;34586;53.616;10.032;2023-04-06T11:31:11;11.40;1.00
10873;DHT22;34586;53.616;10.032;2023-04-06T11:33:37;11.50;27.20
10873;DHT22;34586;53.616;10.032;2023-04-06T11:36:04;11.60;1.30
10873;DHT22;34586;53.616;10.032;2023-04-06T11:38:30;11.60;23.30
10873;DHT22;34586;53.616;10.032;2023-04-06T11:40:56;11.60;37.60
10873;DHT22;34586;53.616;10.032;2023-04-06T11:43:29;11.70;65.20
10873;DHT22;34586;53.616;10.032;2023-04-06T11:46:05;11.80;22.80
10873;DHT22;34586;53.616;10.032;2023-04-06T11:48:46;12.00;3.60
10873;DHT22;34586;53.616;10.032;2023-04-06T11:51:12;12.10;1.00
10873;DHT22;34586;53.616;10.032;2023-04-06T11:53:48;12.10;10.60
10873;DHT22;34586;53.616;10.032;2023-04-06T11:56:27;12.20;4.30
10873;DHT22;34586;53.616;10.032;2023-04-06T11:58:58;12.20;1.00
10873;DHT22;34586;53.616;10.032;2023-04-06T12:01:26;12.30;5.70
10873;DHT22;34586;53.616;10.032;2023-04-06T12:03:52;12.40;1.00
10873;DHT22;34586;53.616;10.032;2023-04-06T12:06:18;12.50;10.60
10873;DHT22;34586;53.616;10.032;2023-04-06T12:08:45;12.50;1.00
10873;DHT22;34586;53.616;10.032;2023-04-06T12:11:11;12.70;1.00
10873;DHT22;34586;53.616;10.032;2023-04-06T12:13:37;12.90;1.00
10873;DHT22;34586;53.616;10.032;2023-04-06T12:16:03;13.00;1.00
10873;DHT22;34586;53.616;10.032;2023-04-06T12:18:30;13.00;1.00
10873;DHT22;34586;53.616;10.032;2023-04-06T12:20:55;13.10;1.00
10873;DHT22;34586;53.616;10.032;2023-04-06T12:23:21;13.20;1.00
10873;DHT22;34586;53.616;10.032;2023-04-06T12:25:47;13.30;1.00
10873;DHT22;34586;53.616;10.032;2023-04-06T12:28:12;13.60;1.00
10873;DHT22;34586;53.616;10.032;2023-04-06T12:30:40;14.20;1.00
10873;DHT22;34586;53.616;10.032;2023-04-06T12:33:07;15.40;1.00
10873;DHT22;34586;53.616;10.032;2023-04-06T12:35:33;16.40;1.00
10873;DHT22;34586;53.616;10.032;2023-04-06T12:38:02;17.20;1.00
10873;DHT22;34586;53.616;10.032;2023-04-06T12:40:27;17.20;1.00
10873;DHT22;34586;53.616;10.032;2023-04-06T12:42:54;17.20;1.00
10873;DHT22;34586;53.616;10.032;2023-04-06T12:45:20;17.70;1.00
10873;DHT22;34586;53.616;10.032;2023-04-06T12:47:46;17.60;1.00
10873;DHT22;34586;53.616;10.032;2023-04-06T12:50:15;17.80;1.00
10873;DHT22;34586;53.616;10.032;2023-04-06T12:52:42;18.10;1.00
10873;DHT22;34586;53.616;10.032;2023-04-06T12:55:09;18.90;1.00
10873;DHT22;34586;53.616;10.032;2023-04-06T12:57:35;18.30;1.00
10873;DHT22;34586;53.616;10.032;2023-04-06T13:00:02;18.20;1.00
10873;DHT22;34586;53.616;10.032;2023-04-06T13:02:31;18.20;1.00
10873;DHT22;34586;53.616;10.032;2023-04-06T13:04:57;17.60;1.00
10873;DHT22;34586;53.616;10.032;2023-04-06T13:07:24;17.50;1.00
10873;DHT22;34586;53.616;10.032;2023-04-06T13:09:51;17.50;1.00
10873;DHT22;34586;53.616;10.032;2023-04-06T13:12:17;17.50;1.00
10873;DHT22;34586;53.616;10.032;2023-04-06T13:14:43;17.40;1.00
10873;DHT22;34586;53.616;10.032;2023-04-06T13:17:10;17.30;1.00
10873;DHT22;34586;53.616;10.032;2023-04-06T13:19:36;17.50;1.00
10873;DHT22;34586;53.616;10.032;2023-04-06T13:22:02;17.70;1.00
10873;DHT22;34586;53.616;10.032;2023-04-06T13:24:28;17.50;1.00
10873;DHT22;34586;53.616;10.032;2023-04-06T13:26:57;17.30;1.00
10873;DHT22;34586;53.616;10.032;2023-04-06T13:29:23;17.30;1.00
10873;DHT22;34586;53.616;10.032;2023-04-06T13:31:49;17.40;1.00
10873;DHT22;34586;53.616;10.032;2023-04-06T13:34:15;17.20;1.00
10873;DHT22;34586;53.616;10.032;2023-04-06T13:36:41;17.30;1.00
10873;DHT22;34586;53.616;10.032;2023-04-06T13:39:10;17.30;1.00
10873;DHT22;34586;53.616;10.032;2023-04-06T13:41:37;17.30;1.00
10873;DHT22;34586;53.616;10.032;2023-04-06T13:44:02;17.10;1.00
10873;DHT22;34586;53.616;10.032;2023-04-06T13:46:33;17.00;1.00
10873;DHT22;34586;53.616;10.032;2023-04-06T13:48:59;17.10;1.00
10873;DHT22;34586;53.616;10.032;2023-04-06T13:51:26;16.80;1.00
10873;DHT22;34586;53.616;10.032;2023-04-06T13:53:54;16.90;1.00
10873;DHT22;34586;53.616;10.032;2023-04-06T13:56:20;16.90;1.00
10873;DHT22;34586;53.616;10.032;2023-04-06T13:58:46;17.00;1.00
10873;DHT22;34586;53.616;10.032;2023-04-06T14:01:12;17.10;1.00
10873;DHT22;34586;53.616;10.032;2023-04-06T14:03:37;17.20;1.00
10873;DHT22;34586;53.616;10.032;2023-04-06T14:06:11;17.30;1.00
10873;DHT22;34586;53.616;10.032;2023-04-06T14:08:37;17.50;1.00
10873;DHT22;34586;53.616;10.032;2023-04-06T14:11:03;17.20;1.00
10873;DHT22;34586;53.616;10.032;2023-04-06T14:13:29;17.10;1.00
10873;DHT22;34586;53.616;10.032;2023-04-06T14:15:55;17.20;1.00
10873;DHT22;34586;53.616;10.032;2023-04-06T14:18:21;17.20;1.00
10873;DHT22;34586;53.616;10.032;2023-04-06T14:20:57;16.70;1.00
10873;DHT22;34586;53.616;10.032;2023-04-06T14:23:24;16.70;1.00
10873;DHT22;34586;53.616;10.032;2023-04-06T14:26:04;16.40;1.00
10873;DHT22;34586;53.616;10.032;2023-04-06T14:28:32;16.10;1.00
10873;DHT22;34586;53.616;10.032;2023-04-06T14:30:59;15.90;1.00
10873;DHT22;34586;53.616;10.032;2023-04-06T14:33:30;16.00;1.00
10873;DHT22;34586;53.616;10.032;2023-04-06T14:35:56;15.70;1.00
10873;DHT22;34586;53.616;10.032;2023-04-06T14:38:22;15.70;1.00
10873;DHT22;34586;53.616;10.032;2023-04-06T14:40:48;15.60;1.00
10873;DHT22;34586;53.616;10.032;2023-04-06T14:43:15;15.60;1.00
10873;DHT22;34586;53.616;10.032;2023-04-06T14:45:40;15.70;1.00
10873;DHT22;34586;53.616;10.032;2023-04-06T14:48:06;15.50;1.00
10873;DHT22;34586;53.616;10.032;2023-04-06T14:50:33;15.60;1.00
10873;DHT22;34586;53.616;10.032;2023-04-06T14:52:59;15.20;1.00
10873;DHT22;34586;53.616;10.032;2023-04-06T14:55:27;15.20;1.00
10873;DHT22;34586;53.616;10.032;2023-04-06T14:57:54;15.30;1.00
10873;DHT22;34586;53.616;10.032;2023-04-06T15:00:20;15.40;1.00
10873;DHT22;34586;53.616;10.032;2023-04-06T15:02:45;15.00;1.00
10873;DHT22;34586;53.616;10.032;2023-04-06T15:05:11;15.00;1.00
10873;DHT22;34586;53.616;10.032;2023-04-06T15:07:38;15.20;1.00
10873;DHT22;34586;53.616;10.032;2023-04-06T15:10:05;15.30;1.00
10873;DHT22;34586;53.616;10.032;2023-04-06T15:12:31;15.50;1.00
10873;DHT22;34586;53.616;10.032;2023-04-06T15:14:57;15.40;1.00
10873;DHT22;34586;53.616;10.032;2023-04-06T15:17:26;15.40;1.00
10873;DHT22;34586;53.616;10.032;2023-04-06T15:19:52;15.50;1.00
10873;DHT22;34586;53.616;10.032;2023-04-06T15:22:18;15.10;1.00
10873;DHT22;34586;53.616;10.032;2023-04-06T15:24:44;15.20;1.00
10873;DHT22;34586;53.616;10.032;2023-04-06T15:27:10;15.10;1.00
10873;DHT22;34586;53.616;10.032;2023-04-06T15:29:36;15.00;1.00
10873;DHT22;34586;53.616;10.032;2023-04-06T15:32:02;15.00;1.00
10873;DHT22;34586;53.616;10.032;2023-04-06T15:34:27;14.80;1.00
10873;DHT22;34586;53.616;10.032;2023-04-06T15:37:03;15.10;1.00
10873;DHT22;34586;53.616;10.032;2023-04-06T15:39:30;15.10;1.00
10873;DHT22;34586;53.616;10.032;2023-04-06T15:41:56;14.90;1.00